sensor_id;sensor_type;location;lat;lon;timestamp;temperature;humidity
52030;DHT22;38043;53.224;6.580;2023-04-01T00:01:38;9.80;99.90
52030;DHT22;38043;53.224;6.580;2023-04-01T00:04:03;9.80;99.90
52030;DHT22;38043;53.224;6.580;2023-04-01T00:06:29;9.80;99.90
52030;DHT22;38043;53.224;6.580;2023-04-01T00:08:55;9.80;99.90
52030;DHT22;38043;53.224;6.580;2023-04-01T00:11:20;9.80;99.90
52030;DHT22;38043;53.224;6.580;2023-04-01T00:13:47;9.80;99.90
52030;DHT22;38043;53.224;6.580;2023-04-01T00:16:13;9.70;99.90
52030;DHT22;38043;53.224;6.580;2023-04-01T00:18:39;9.70;99.90
52030;DHT22;38043;53.224;6.580;2023-04-01T00:21:05;9.70;99.90
52030;DHT22;38043;53.224;6.580;2023-04-01T00:23:31;9.80;99.90
52030;DHT22;38043;53.224;6.580;2023-04-01T00:26:02;9.70;99.90
52030;DHT22;38043;53.224;6.580;2023-04-01T00:28:28;9.70;99.90
52030;DHT22;38043;53.224;6.580;2023-04-01T00:30:54;9.80;99.90
52030;DHT22;38043;53.224;6.580;2023-04-01T00:33:19;9.70;99.90
52030;DHT22;38043;53.224;6.580;2023-04-01T00:35:45;9.70;99.90
52030;DHT22;38043;53.224;6.580;2023-04-01T00:38:11;9.80;99.90
52030;DHT22;38043;53.224;6.580;2023-04-01T00:40:43;9.70;99.90
52030;DHT22;38043;53.224;6.580;2023-04-01T00:43:15;9.70;99.90
52030;DHT22;38043;53.224;6.580;2023-04-01T00:45:45;9.70;99.90
52030;DHT22;38043;53.224;6.580;2023-04-01T00:48:17;9.80;99.90
52030;DHT22;38043;53.224;6.580;2023-04-01T00:50:49;9.70;99.90
52030;DHT22;38043;53.224;6.580;2023-04-01T00:53:17;9.70;99.90
52030;DHT22;38043;53.224;6.580;2023-04-01T00:55:50;9.70;99.90
52030;DHT22;38043;53.224;6.580;2023-04-01T00:58:18;9.70;99.90
52030;DHT22;38043;53.224;6.580;2023-04-01T01:00:47;9.80;99.90
52030;DHT22;38043;53.224;6.580;2023-04-01T01:03:14;9.70;99.90
52030;DHT22;38043;53.224;6.580;2023-04-01T01:08:23;9.70;99.90
52030;DHT22;38043;53.224;6.580;2023-04-01T01:10:50;9.70;99.90
52030;DHT22;38043;53.224;6.580;2023-04-01T01:13:36;9.70;99.90
52030;DHT22;38043;53.224;6.580;2023-04-01T01:16:31;9.70;99.90
52030;DHT22;38043;53.224;6.580;2023-04-01T01:25:18;9.70;99.90
52030;DHT22;38043;53.224;6.580;2023-04-01T01:28:02;9.70;99.90
52030;DHT22;38043;53.224;6.580;2023-04-01T01:30:53;9.60;99.90
52030;DHT22;38043;53.224;6.580;2023-04-01T01:33:34;9.70;99.90
52030;DHT22;38043;53.224;6.580;2023-04-01T01:36:04;9.70;99.90
52030;DHT22;38043;53.224;6.580;2023-04-01T01:38:34;9.70;99.90
52030;DHT22;38043;53.224;6.580;2023-04-01T01:41:00;9.70;99.90
52030;DHT22;38043;53.224;6.580;2023-04-01T01:43:31;9.70;99.90
52030;DHT22;38043;53.224;6.580;2023-04-01T01:46:01;9.70;99.90
52030;DHT22;38043;53.224;6.580;2023-04-01T01:48:29;9.70;99.90
52030;DHT22;38043;53.224;6.580;2023-04-01T01:50:56;9.70;99.90
52030;DHT22;38043;53.224;6.580;2023-04-01T01:53:22;9.70;99.90
52030;DHT22;38043;53.224;6.580;2023-04-01T01:55:47;9.70;99.90
52030;DHT22;38043;53.224;6.580;2023-04-01T01:58:27;9.70;99.90
52030;DHT22;38043;53.224;6.580;2023-04-01T02:00:59;9.70;99.90
52030;DHT22;38043;53.224;6.580;2023-04-01T02:03:29;9.60;99.90
52030;DHT22;38043;53.224;6.580;2023-04-01T02:05:57;9.60;99.90
52030;DHT22;38043;53.224;6.580;2023-04-01T02:08:33;9.60;99.90
52030;DHT22;38043;53.224;6.580;2023-04-01T02:11:04;9.70;99.90
52030;DHT22;38043;53.224;6.580;2023-04-01T02:13:42;9.60;99.90
52030;DHT22;38043;53.224;6.580;2023-04-01T02:16:20;9.70;99.90
52030;DHT22;38043;53.224;6.580;2023-04-01T02:18:50;9.60;99.90
52030;DHT22;38043;53.224;6.580;2023-04-01T02:21:19;9.60;99.90
52030;DHT22;38043;53.224;6.580;2023-04-01T02:23:47;9.60;99.90
52030;DHT22;38043;53.224;6.580;2023-04-01T02:26:13;9.60;99.90
52030;DHT22;38043;53.224;6.580;2023-04-01T02:28:40;9.60;99.90
52030;DHT22;38043;53.224;6.580;2023-04-01T02:31:09;9.60;99.90
52030;DHT22;38043;53.224;6.580;2023-04-01T02:33:38;9.60;99.90
52030;DHT22;38043;53.224;6.580;2023-04-01T02:36:05;9.60;99.90
52030;DHT22;38043;53.224;6.580;2023-04-01T02:38:31;9.60;99.90
52030;DHT22;38043;53.224;6.580;2023-04-01T02:40:59;9.60;99.90
52030;DHT22;38043;53.224;6.580;2023-04-01T02:43:27;9.60;99.90
52030;DHT22;38043;53.224;6.580;2023-04-01T02:45:53;9.60;99.90
52030;DHT22;38043;53.224;6.580;2023-04-01T02:48:18;9.60;99.90
52030;DHT22;38043;53.224;6.580;2023-04-01T02:50:44;9.60;99.90
52030;DHT22;38043;53.224;6.580;2023-04-01T02:53:10;9.60;99.90
52030;DHT22;38043;53.224;6.580;2023-04-01T02:55:35;9.60;99.90
52030;DHT22;38043;53.224;6.580;2023-04-01T02:58:01;9.50;99.90
52030;DHT22;38043;53.224;6.580;2023-04-01T03:00:27;9.60;99.90
52030;DHT22;38043;53.224;6.580;2023-04-01T03:02:53;9.50;99.90
52030;DHT22;38043;53.224;6.580;2023-04-01T03:05:19;9.50;99.90
52030;DHT22;38043;53.224;6.580;2023-04-01T03:07:45;9.60;99.90
52030;DHT22;38043;53.224;6.580;2023-04-01T03:10:11;9.50;99.90
52030;DHT22;38043;53.224;6.580;2023-04-01T03:12:36;9.50;99.90
52030;DHT22;38043;53.224;6.580;2023-04-01T03:15:02;9.50;99.90
52030;DHT22;38043;53.224;6.580;2023-04-01T03:17:28;9.50;99.90
52030;DHT22;38043;53.224;6.580;2023-04-01T03:19:54;9.50;99.90
52030;DHT22;38043;53.224;6.580;2023-04-01T03:22:20;9.50;99.90
52030;DHT22;38043;53.224;6.580;2023-04-01T03:24:48;9.50;99.90
52030;DHT22;38043;53.224;6.580;2023-04-01T03:27:14;9.40;99.90
52030;DHT22;38043;53.224;6.580;2023-04-01T03:29:40;9.40;99.90
52030;DHT22;38043;53.224;6.580;2023-04-01T03:32:06;9.50;99.90
52030;DHT22;38043;53.224;6.580;2023-04-01T03:34:31;9.40;99.90
52030;DHT22;38043;53.224;6.580;2023-04-01T03:36:57;9.40;99.90
52030;DHT22;38043;53.224;6.580;2023-04-01T03:39:23;9.40;99.90
52030;DHT22;38043;53.224;6.580;2023-04-01T03:41:49;9.40;99.90
52030;DHT22;38043;53.224;6.580;2023-04-01T03:44:15;9.40;99.90
52030;DHT22;38043;53.224;6.580;2023-04-01T03:46:41;9.40;99.90
52030;DHT22;38043;53.224;6.580;2023-04-01T03:49:07;9.40;99.90
52030;DHT22;38043;53.224;6.580;2023-04-01T03:51:38;9.40;99.90
52030;DHT22;38043;53.224;6.580;2023-04-01T03:54:04;9.30;99.90
52030;DHT22;38043;53.224;6.580;2023-04-01T03:56:30;9.40;99.90
52030;DHT22;38043;53.224;6.580;2023-04-01T03:58:56;9.40;99.90
52030;DHT22;38043;53.224;6.580;2023-04-01T04:01:22;9.40;99.90
52030;DHT22;38043;53.224;6.580;2023-04-01T04:03:48;9.40;99.90
52030;DHT22;38043;53.224;6.580;2023-04-01T04:06:16;9.50;99.90
52030;DHT22;38043;53.224;6.580;2023-04-01T04:08:42;9.40;99.90
52030;DHT22;38043;53.224;6.580;2023-04-01T04:11:08;9.40;99.90
52030;DHT22;38043;53.224;6.580;2023-04-01T04:13:34;9.40;99.90
52030;DHT22;38043;53.224;6.580;2023-04-01T04:16:01;9.40;99.90
52030;DHT22;38043;53.224;6.580;2023-04-01T04:18:27;9.40;99.90
52030;DHT22;38043;53.224;6.580;2023-04-01T04:20:53;9.60;99.90
52030;DHT22;38043;53.224;6.580;2023-04-01T04:23:18;9.30;99.90
52030;DHT22;38043;53.224;6.580;2023-04-01T04:26:01;9.40;99.90
52030;DHT22;38043;53.224;6.580;2023-04-01T04:28:28;9.40;99.90
52030;DHT22;38043;53.224;6.580;2023-04-01T04:30:54;9.40;99.90
52030;DHT22;38043;53.224;6.580;2023-04-01T04:33:22;9.40;99.90
52030;DHT22;38043;53.224;6.580;2023-04-01T04:35:48;9.40;99.90
52030;DHT22;38043;53.224;6.580;2023-04-01T04:38:14;9.40;99.90
52030;DHT22;38043;53.224;6.580;2023-04-01T04:40:40;9.40;99.90
52030;DHT22;38043;53.224;6.580;2023-04-01T04:43:07;9.40;99.90
52030;DHT22;38043;53.224;6.580;2023-04-01T04:45:32;9.40;99.90
52030;DHT22;38043;53.224;6.580;2023-04-01T04:47:58;9.40;99.90
52030;DHT22;38043;53.224;6.580;2023-04-01T04:50:24;9.40;99.90
52030;DHT22;38043;53.224;6.580;2023-04-01T04:52:50;9.40;99.90
52030;DHT22;38043;53.224;6.580;2023-04-01T04:55:16;9.40;99.90
52030;DHT22;38043;53.224;6.580;2023-04-01T04:57:42;9.40;99.90
52030;DHT22;38043;53.224;6.580;2023-04-01T05:00:08;9.40;99.90
52030;DHT22;38043;53.224;6.580;2023-04-01T05:02:35;9.40;99.90
52030;DHT22;38043;53.224;6.580;2023-04-01T05:05:01;9.40;99.90
52030;DHT22;38043;53.224;6.580;2023-04-01T05:07:27;9.40;99.90
52030;DHT22;38043;53.224;6.580;2023-04-01T05:09:52;9.40;99.90
52030;DHT22;38043;53.224;6.580;2023-04-01T05:12:18;9.40;99.90
52030;DHT22;38043;53.224;6.580;2023-04-01T05:14:44;9.40;99.90
52030;DHT22;38043;53.224;6.580;2023-04-01T05:17:12;9.50;99.90
52030;DHT22;38043;53.224;6.580;2023-04-01T05:19:38;9.50;99.90
52030;DHT22;38043;53.224;6.580;2023-04-01T05:22:05;9.40;99.90
52030;DHT22;38043;53.224;6.580;2023-04-01T05:24:31;9.40;99.90
52030;DHT22;38043;53.224;6.580;2023-04-01T05:26:57;9.40;99.90
52030;DHT22;38043;53.224;6.580;2023-04-01T05:29:24;9.50;99.90
52030;DHT22;38043;53.224;6.580;2023-04-01T05:31:50;9.50;99.90
52030;DHT22;38043;53.224;6.580;2023-04-01T05:34:16;9.40;99.90
52030;DHT22;38043;53.224;6.580;2023-04-01T05:36:42;9.50;99.90
52030;DHT22;38043;53.224;6.580;2023-04-01T05:39:08;9.50;99.90
52030;DHT22;38043;53.224;6.580;2023-04-01T05:41:37;9.50;99.90
52030;DHT22;38043;53.224;6.580;2023-04-01T05:44:04;9.40;99.90
52030;DHT22;38043;53.224;6.580;2023-04-01T05:46:30;9.50;99.90
52030;DHT22;38043;53.224;6.580;2023-04-01T05:48:56;9.50;99.90
52030;DHT22;38043;53.224;6.580;2023-04-01T05:51:22;9.50;99.90
52030;DHT22;38043;53.224;6.580;2023-04-01T05:53:47;9.50;99.90
52030;DHT22;38043;53.224;6.580;2023-04-01T05:56:13;9.50;99.90
52030;DHT22;38043;53.224;6.580;2023-04-01T05:58:39;9.90;99.90
52030;DHT22;38043;53.224;6.580;2023-04-01T06:01:10;9.50;99.90
52030;DHT22;38043;53.224;6.580;2023-04-01T06:03:36;9.50;99.90
52030;DHT22;38043;53.224;6.580;2023-04-01T06:06:02;9.50;99.90
52030;DHT22;38043;53.224;6.580;2023-04-01T06:08:31;9.50;99.90
52030;DHT22;38043;53.224;6.580;2023-04-01T06:11:05;9.60;99.90
52030;DHT22;38043;53.224;6.580;2023-04-01T06:16:32;9.50;99.90
52030;DHT22;38043;53.224;6.580;2023-04-01T06:30:44;9.60;99.90
52030;DHT22;38043;53.224;6.580;2023-04-01T06:42:11;9.70;99.90
52030;DHT22;38043;53.224;6.580;2023-04-01T06:50:35;9.80;99.90
52030;DHT22;38043;53.224;6.580;2023-04-01T06:53:17;9.80;99.90
52030;DHT22;38043;53.224;6.580;2023-04-01T06:55:47;9.80;99.90
52030;DHT22;38043;53.224;6.580;2023-04-01T06:58:34;9.90;99.90
52030;DHT22;38043;53.224;6.580;2023-04-01T07:01:10;9.90;99.90
52030;DHT22;38043;53.224;6.580;2023-04-01T07:03:49;9.90;99.90
52030;DHT22;38043;53.224;6.580;2023-04-01T07:06:32;9.90;99.90
52030;DHT22;38043;53.224;6.580;2023-04-01T07:09:04;9.90;99.90
52030;DHT22;38043;53.224;6.580;2023-04-01T07:11:34;10.00;99.90
52030;DHT22;38043;53.224;6.580;2023-04-01T07:14:22;9.90;99.90
52030;DHT22;38043;53.224;6.580;2023-04-01T07:16:51;9.90;99.90
52030;DHT22;38043;53.224;6.580;2023-04-01T07:19:45;9.90;99.90
52030;DHT22;38043;53.224;6.580;2023-04-01T07:22:34;9.90;99.90
52030;DHT22;38043;53.224;6.580;2023-04-01T07:27:48;10.00;99.90
52030;DHT22;38043;53.224;6.580;2023-04-01T07:30:16;10.20;99.90
52030;DHT22;38043;53.224;6.580;2023-04-01T07:33:00;10.10;99.90
52030;DHT22;38043;53.224;6.580;2023-04-01T07:38:17;10.20;99.90
52030;DHT22;38043;53.224;6.580;2023-04-01T07:40:59;10.20;99.90
52030;DHT22;38043;53.224;6.580;2023-04-01T07:43:36;10.20;99.90
52030;DHT22;38043;53.224;6.580;2023-04-01T07:54:42;10.40;99.90
52030;DHT22;38043;53.224;6.580;2023-04-01T08:00:19;10.40;99.90
52030;DHT22;38043;53.224;6.580;2023-04-01T08:03:15;10.30;99.90
52030;DHT22;38043;53.224;6.580;2023-04-01T08:05:57;10.30;99.90
52030;DHT22;38043;53.224;6.580;2023-04-01T08:21:16;10.90;99.90
52030;DHT22;38043;53.224;6.580;2023-04-01T08:23:48;10.70;99.90
52030;DHT22;38043;53.224;6.580;2023-04-01T08:26:39;10.70;99.90
52030;DHT22;38043;53.224;6.580;2023-04-01T08:31:54;10.80;99.90
52030;DHT22;38043;53.224;6.580;2023-04-01T08:34:32;10.80;99.90
52030;DHT22;38043;53.224;6.580;2023-04-01T08:37:07;10.90;99.90
52030;DHT22;38043;53.224;6.580;2023-04-01T08:39:48;11.00;99.90
52030;DHT22;38043;53.224;6.580;2023-04-01T08:42:37;11.00;99.90
52030;DHT22;38043;53.224;6.580;2023-04-01T08:45:26;11.00;99.90
52030;DHT22;38043;53.224;6.580;2023-04-01T08:54:16;11.00;99.90
52030;DHT22;38043;53.224;6.580;2023-04-01T08:57:01;10.90;99.90
52030;DHT22;38043;53.224;6.580;2023-04-01T09:02:50;10.50;99.90
52030;DHT22;38043;53.224;6.580;2023-04-01T09:05:35;10.40;99.90
52030;DHT22;38043;53.224;6.580;2023-04-01T09:10:56;10.20;99.90
52030;DHT22;38043;53.224;6.580;2023-04-01T09:13:42;10.10;99.90
52030;DHT22;38043;53.224;6.580;2023-04-01T09:24:32;9.80;99.90
52030;DHT22;38043;53.224;6.580;2023-04-01T09:30:18;9.70;99.90
52030;DHT22;38043;53.224;6.580;2023-04-01T09:35:47;9.80;99.90
52030;DHT22;38043;53.224;6.580;2023-04-01T09:38:26;9.80;99.90
52030;DHT22;38043;53.224;6.580;2023-04-01T09:41:29;9.80;99.90
52030;DHT22;38043;53.224;6.580;2023-04-01T09:43:58;9.80;99.90
52030;DHT22;38043;53.224;6.580;2023-04-01T09:46:37;9.80;99.90
52030;DHT22;38043;53.224;6.580;2023-04-01T10:31:42;9.60;99.90
52030;DHT22;38043;53.224;6.580;2023-04-01T11:00:40;9.40;99.90
52030;DHT22;38043;53.224;6.580;2023-04-01T11:07:34;9.20;99.90
52030;DHT22;38043;53.224;6.580;2023-04-01T11:25:05;9.10;99.90
52030;DHT22;38043;53.224;6.580;2023-04-01T11:33:03;9.30;99.90
52030;DHT22;38043;53.224;6.580;2023-04-01T11:35:33;9.40;99.90
52030;DHT22;38043;53.224;6.580;2023-04-01T11:40:59;9.40;99.90
52030;DHT22;38043;53.224;6.580;2023-04-01T11:43:39;9.40;99.90
52030;DHT22;38043;53.224;6.580;2023-04-01T11:46:35;9.50;99.90
52030;DHT22;38043;53.224;6.580;2023-04-01T11:49:33;9.60;99.90
52030;DHT22;38043;53.224;6.580;2023-04-01T11:52:21;9.60;99.90
52030;DHT22;38043;53.224;6.580;2023-04-01T12:06:21;9.60;99.90
52030;DHT22;38043;53.224;6.580;2023-04-01T12:37:00;9.60;99.90
52030;DHT22;38043;53.224;6.580;2023-04-01T12:49:55;9.80;99.90
52030;DHT22;38043;53.224;6.580;2023-04-01T13:00:45;9.60;99.90
52030;DHT22;38043;53.224;6.580;2023-04-01T13:18:06;9.70;99.90
52030;DHT22;38043;53.224;6.580;2023-04-01T13:28:29;9.50;99.90
52030;DHT22;38043;53.224;6.580;2023-04-01T13:41:33;9.60;99.90
52030;DHT22;38043;53.224;6.580;2023-04-01T13:44:17;9.60;99.90
52030;DHT22;38043;53.224;6.580;2023-04-01T13:47:22;9.60;99.90
52030;DHT22;38043;53.224;6.580;2023-04-01T13:50:17;9.60;99.90
52030;DHT22;38043;53.224;6.580;2023-04-01T13:55:54;9.50;99.90
52030;DHT22;38043;53.224;6.580;2023-04-01T13:58:49;9.50;99.90
52030;DHT22;38043;53.224;6.580;2023-04-01T14:07:03;9.30;99.90
52030;DHT22;38043;53.224;6.580;2023-04-01T14:12:28;9.10;99.90
52030;DHT22;38043;53.224;6.580;2023-04-01T14:15:15;9.00;99.90
52030;DHT22;38043;53.224;6.580;2023-04-01T14:23:35;8.90;99.90
52030;DHT22;38043;53.224;6.580;2023-04-01T14:31:52;8.80;99.90
52030;DHT22;38043;53.224;6.580;2023-04-01T14:40:34;8.70;99.90
52030;DHT22;38043;53.224;6.580;2023-04-01T14:43:20;8.70;99.90
52030;DHT22;38043;53.224;6.580;2023-04-01T14:48:49;8.70;99.90
52030;DHT22;38043;53.224;6.580;2023-04-01T14:51:34;8.60;99.90
52030;DHT22;38043;53.224;6.580;2023-04-01T14:56:51;8.50;99.90
52030;DHT22;38043;53.224;6.580;2023-04-01T14:59:28;8.40;99.90
52030;DHT22;38043;53.224;6.580;2023-04-01T15:05:07;8.40;99.90
52030;DHT22;38043;53.224;6.580;2023-04-01T15:07:42;8.40;99.90
52030;DHT22;38043;53.224;6.580;2023-04-01T15:15:48;8.30;99.90
52030;DHT22;38043;53.224;6.580;2023-04-01T15:18:44;8.20;99.90
52030;DHT22;38043;53.224;6.580;2023-04-01T15:21:16;8.20;99.90
52030;DHT22;38043;53.224;6.580;2023-04-01T15:26:54;8.20;99.90
52030;DHT22;38043;53.224;6.580;2023-04-01T15:29:50;8.10;99.90
52030;DHT22;38043;53.224;6.580;2023-04-01T15:37:56;7.90;99.90
52030;DHT22;38043;53.224;6.580;2023-04-01T15:46:14;7.80;99.90
52030;DHT22;38043;53.224;6.580;2023-04-01T16:02:40;7.70;99.90
52030;DHT22;38043;53.224;6.580;2023-04-01T16:05:42;7.60;99.90
52030;DHT22;38043;53.224;6.580;2023-04-01T16:14:04;7.50;99.90
52030;DHT22;38043;53.224;6.580;2023-04-01T16:19:37;7.40;99.90
52030;DHT22;38043;53.224;6.580;2023-04-01T16:22:25;7.50;99.90
52030;DHT22;38043;53.224;6.580;2023-04-01T16:28:04;7.30;99.90
52030;DHT22;38043;53.224;6.580;2023-04-01T16:30:46;7.30;99.90
52030;DHT22;38043;53.224;6.580;2023-04-01T16:33:30;7.30;99.90
52030;DHT22;38043;53.224;6.580;2023-04-01T16:36:10;7.30;99.90
52030;DHT22;38043;53.224;6.580;2023-04-01T16:38:39;7.30;99.90
52030;DHT22;38043;53.224;6.580;2023-04-01T16:41:18;7.10;99.90
52030;DHT22;38043;53.224;6.580;2023-04-01T16:44:09;7.20;99.90
52030;DHT22;38043;53.224;6.580;2023-04-01T16:46:41;7.10;99.90
52030;DHT22;38043;53.224;6.580;2023-04-01T16:51:47;7.10;99.90
52030;DHT22;38043;53.224;6.580;2023-04-01T16:56:50;7.00;99.90
52030;DHT22;38043;53.224;6.580;2023-04-01T16:59:27;7.00;99.90
52030;DHT22;38043;53.224;6.580;2023-04-01T17:04:45;7.00;99.90
52030;DHT22;38043;53.224;6.580;2023-04-01T17:18:16;7.00;99.90
52030;DHT22;38043;53.224;6.580;2023-04-01T17:24:00;6.90;99.90
52030;DHT22;38043;53.224;6.580;2023-04-01T17:27:05;6.90;99.90
52030;DHT22;38043;53.224;6.580;2023-04-01T17:32:34;6.80;99.90
52030;DHT22;38043;53.224;6.580;2023-04-01T17:35:13;6.80;99.90
52030;DHT22;38043;53.224;6.580;2023-04-01T17:37:57;6.80;99.90
52030;DHT22;38043;53.224;6.580;2023-04-01T17:40:33;6.80;99.90
52030;DHT22;38043;53.224;6.580;2023-04-01T17:45:49;6.70;99.90
52030;DHT22;38043;53.224;6.580;2023-04-01T17:51:14;6.70;99.90
52030;DHT22;38043;53.224;6.580;2023-04-01T17:53:45;6.70;99.90
52030;DHT22;38043;53.224;6.580;2023-04-01T17:56:40;6.60;99.90
52030;DHT22;38043;53.224;6.580;2023-04-01T17:59:20;6.60;99.90
52030;DHT22;38043;53.224;6.580;2023-04-01T18:02:13;6.50;99.90
52030;DHT22;38043;53.224;6.580;2023-04-01T18:10:21;6.60;99.90
52030;DHT22;38043;53.224;6.580;2023-04-01T18:18:37;6.40;99.90
52030;DHT22;38043;53.224;6.580;2023-04-01T18:23:58;6.40;99.90
52030;DHT22;38043;53.224;6.580;2023-04-01T18:26:35;6.40;99.90
52030;DHT22;38043;53.224;6.580;2023-04-01T18:32:25;6.30;99.90
52030;DHT22;38043;53.224;6.580;2023-04-01T18:34:57;6.30;99.90
52030;DHT22;38043;53.224;6.580;2023-04-01T18:37:44;6.30;99.90
52030;DHT22;38043;53.224;6.580;2023-04-01T18:40:22;6.30;99.90
52030;DHT22;38043;53.224;6.580;2023-04-01T18:48:41;6.10;99.90
52030;DHT22;38043;53.224;6.580;2023-04-01T18:51:11;6.20;99.90
52030;DHT22;38043;53.224;6.580;2023-04-01T18:53:57;6.10;99.90
52030;DHT22;38043;53.224;6.580;2023-04-01T18:56:30;6.10;99.90
52030;DHT22;38043;53.224;6.580;2023-04-01T18:59:18;6.10;99.90
52030;DHT22;38043;53.224;6.580;2023-04-01T19:02:02;6.10;99.90
52030;DHT22;38043;53.224;6.580;2023-04-01T19:04:36;6.10;99.90
52030;DHT22;38043;53.224;6.580;2023-04-01T19:07:41;6.10;99.90
52030;DHT22;38043;53.224;6.580;2023-04-01T19:18:52;5.90;99.90
52030;DHT22;38043;53.224;6.580;2023-04-01T19:21:41;5.90;99.90
52030;DHT22;38043;53.224;6.580;2023-04-01T19:26:53;5.90;99.90
52030;DHT22;38043;53.224;6.580;2023-04-01T19:38:12;5.80;99.90
52030;DHT22;38043;53.224;6.580;2023-04-01T19:40:53;5.70;99.90
52030;DHT22;38043;53.224;6.580;2023-04-01T19:43:39;5.80;99.90
52030;DHT22;38043;53.224;6.580;2023-04-01T19:46:27;5.70;99.90
52030;DHT22;38043;53.224;6.580;2023-04-01T19:57:00;6.20;99.90
52030;DHT22;38043;53.224;6.580;2023-04-01T19:59:38;5.50;99.90
52030;DHT22;38043;53.224;6.580;2023-04-01T20:07:43;5.60;99.90
52030;DHT22;38043;53.224;6.580;2023-04-01T20:10:17;5.50;99.90
52030;DHT22;38043;53.224;6.580;2023-04-01T20:13:12;5.50;99.90
52030;DHT22;38043;53.224;6.580;2023-04-01T20:15:47;5.50;99.90
52030;DHT22;38043;53.224;6.580;2023-04-01T20:18:39;5.50;99.90
52030;DHT22;38043;53.224;6.580;2023-04-01T20:21:24;5.40;99.90
52030;DHT22;38043;53.224;6.580;2023-04-01T20:23:56;5.50;99.90
52030;DHT22;38043;53.224;6.580;2023-04-01T20:26:30;5.40;99.90
52030;DHT22;38043;53.224;6.580;2023-04-01T20:39:47;5.40;99.90
52030;DHT22;38043;53.224;6.580;2023-04-01T20:48:31;5.40;99.90
52030;DHT22;38043;53.224;6.580;2023-04-01T20:51:08;5.40;99.90
52030;DHT22;38043;53.224;6.580;2023-04-01T20:56:23;5.30;99.90
52030;DHT22;38043;53.224;6.580;2023-04-01T20:59:03;5.30;99.90
52030;DHT22;38043;53.224;6.580;2023-04-01T21:07:17;5.30;99.90
52030;DHT22;38043;53.224;6.580;2023-04-01T21:12:50;5.20;99.90
52030;DHT22;38043;53.224;6.580;2023-04-01T21:15:26;5.20;99.90
52030;DHT22;38043;53.224;6.580;2023-04-01T21:26:47;5.30;99.90
52030;DHT22;38043;53.224;6.580;2023-04-01T21:34:35;5.10;99.90
52030;DHT22;38043;53.224;6.580;2023-04-01T21:42:45;5.00;99.90
52030;DHT22;38043;53.224;6.580;2023-04-01T21:45:33;5.00;99.90
52030;DHT22;38043;53.224;6.580;2023-04-01T21:48:33;5.00;99.90
52030;DHT22;38043;53.224;6.580;2023-04-01T22:08:16;4.90;99.90
52030;DHT22;38043;53.224;6.580;2023-04-01T22:11:04;4.90;99.90
52030;DHT22;38043;53.224;6.580;2023-04-01T22:13:42;4.90;99.90
52030;DHT22;38043;53.224;6.580;2023-04-01T22:19:35;4.90;99.90
52030;DHT22;38043;53.224;6.580;2023-04-01T22:21:53;4.90;99.90
52030;DHT22;38043;53.224;6.580;2023-04-01T22:27:07;4.90;99.90
52030;DHT22;38043;53.224;6.580;2023-04-01T22:44:58;4.60;99.90
52030;DHT22;38043;53.224;6.580;2023-04-01T22:49:50;4.50;99.90
52030;DHT22;38043;53.224;6.580;2023-04-01T22:52:31;4.40;99.90
52030;DHT22;38043;53.224;6.580;2023-04-01T23:00:43;4.30;99.90
52030;DHT22;38043;53.224;6.580;2023-04-01T23:03:28;4.20;99.90
52030;DHT22;38043;53.224;6.580;2023-04-01T23:05:57;4.20;99.90
52030;DHT22;38043;53.224;6.580;2023-04-01T23:11:33;4.20;99.90
52030;DHT22;38043;53.224;6.580;2023-04-01T23:17:22;4.10;99.90
52030;DHT22;38043;53.224;6.580;2023-04-01T23:22:59;4.00;99.90
52030;DHT22;38043;53.224;6.580;2023-04-01T23:28:18;4.00;99.90
52030;DHT22;38043;53.224;6.580;2023-04-01T23:30:46;4.00;99.90
52030;DHT22;38043;53.224;6.580;2023-04-01T23:38:21;3.90;99.90
52030;DHT22;38043;53.224;6.580;2023-04-01T23:40:48;3.90;99.90
52030;DHT22;38043;53.224;6.580;2023-04-01T23:43:30;3.90;99.90
52030;DHT22;38043;53.224;6.580;2023-04-01T23:45:58;3.80;99.90
52030;DHT22;38043;53.224;6.580;2023-04-01T23:48:33;3.80;99.90
52030;DHT22;38043;53.224;6.580;2023-04-01T23:51:00;3.70;99.90
52030;DHT22;38043;53.224;6.580;2023-04-01T23:53:30;3.70;99.90
52030;DHT22;38043;53.224;6.580;2023-04-01T23:55:58;3.60;99.90
52030;DHT22;38043;53.224;6.580;2023-04-01T23:58:48;3.60;99.90
